CYMX/YMX METAR and TAF weather

Enter ICAO airport designator
Station Type Date Time Source
CYMX METAR 2020/10/20 18:00 UTC NOAA

CYMX 201800Z 26006KT 200V300 30SM SCT009 BKN023 BKN080 10/06 A3025 RMK SC3SC4AC1 AC TR SLP247


Station Type Date Time Source
CYMX Decoded METAR 2020/10/20 18:00 UTC NOAA

Montreal / Mirabel, Canada (CYMX) 45-41N 074-02W
Oct 20, 2020 - 02:00 PM EDT / 2020.10.20 1800 UTC
Wind: from the W (260 degrees) at 7 MPH (6 KT) (direction variable):0
Visibility: 30 mile(s):0
Sky conditions: mostly cloudy
Temperature: 50 F (10 C)
Dew Point: 42 F (6 C)
Relative Humidity: 76%
Pressure (altimeter): 30.25 in. Hg (1024 hPa)
ob: CYMX 201800Z 26006KT 200V300 30SM SCT009 BKN023 BKN080 10/06 A3025 RMK SC3SC4AC1 AC TR SLP247
cycle: 18

Station Type Date Time Source
CYMX TAF 2020/10/20 18:48 UTC NOAA

TAF TAF CYMX 201746Z 2018/2118 25008KT P6SM FEW008 BKN015 OVC025
TEMPO 2018/2020 SCT015 BKN030 BKN080
FM202000 27005KT P6SM BKN030
TEMPO 2105/2107 OVC020
FM210700 05005KT P6SM OVC020
FM210900 05008KT P6SM -DZ BKN007 OVC012
FM211100 05008KT 5SM -DZ BR OVC006
FM211300 06008KT 2SM -RA BR OVC003
BECMG 2116/2118 20008KT
RMK NXT FCST BY 210000Z

Example: see airport list